Time;durP1;ratioP1;P1;durP2;ratioP2;P2;SDS_P1;SDS_P2;PMS_P1;PMS_P2;Temp;Humidity;BMP_temperature;BMP_pressure;BME280_temperature;BME280_humidity;BME280_pressure;Samples;Min_cycle;Max_cycle;Signal;HPM_P1;HPM_P2
2020/12/02 00:02:22;;;;;;;39.20;21.02;;;;;;;4.12;100.00;102123.13;4725610;30;20047;-91
2020/12/02 00:04:50;;;;;;;41.25;21.38;;;;;;;4.19;100.00;102119.59;4699281;30;20524;-93
2020/12/02 00:07:19;;;;;;;39.60;20.85;;;;;;;4.20;100.00;102122.22;4723355;30;20044;-93
2020/12/02 00:09:49;;;;;;;39.47;20.98;;;;;;;4.28;100.00;102120.41;4729654;30;20571;-94
2020/12/02 00:12:16;;;;;;;42.08;21.80;;;;;;;4.26;100.00;102114.25;4731484;30;20059;-94
2020/12/02 00:14:44;;;;;;;36.25;21.35;;;;;;;4.24;100.00;102118.66;4730516;30;20569;-91
2020/12/02 00:17:17;;;;;;;32.72;19.85;;;;;;;4.12;100.00;102117.84;4724885;30;20044;-92
2020/12/02 00:19:46;;;;;;;31.83;19.73;;;;;;;4.25;100.00;102114.25;4716142;30;20064;-92
2020/12/02 00:22:16;;;;;;;37.53;21.48;;;;;;;4.22;100.00;102104.56;4729729;30;20060;-92
2020/12/02 00:24:44;;;;;;;35.33;21.33;;;;;;;4.31;100.00;102108.94;4733538;30;20389;-92
2020/12/02 00:27:14;;;;;;;33.03;19.92;;;;;;;4.34;100.00;102101.84;4732529;30;20171;-91
2020/12/02 00:29:43;;;;;;;36.33;21.63;;;;;;;4.39;100.00;102098.28;4711871;30;20064;-93
2020/12/02 00:32:24;;;;;;;36.83;21.38;;;;;;;4.38;100.00;102102.72;4727961;30;20070;-91
2020/12/02 00:34:52;;;;;;;34.85;20.63;;;;;;;4.39;100.00;102107.13;4730231;30;20496;-94
2020/12/02 00:37:19;;;;;;;37.40;22.30;;;;;;;4.30;100.00;102101.88;4728183;30;20040;-92
2020/12/02 00:39:47;;;;;;;38.42;21.17;;;;;;;4.26;100.00;102093.03;4715848;30;20126;-93
2020/12/02 00:42:16;;;;;;;36.83;22.33;;;;;;;4.28;100.00;102101.84;4729860;30;20056;-91
2020/12/02 00:44:43;;;;;;;37.13;22.08;;;;;;;4.25;100.00;102107.16;4715635;30;20467;-94
2020/12/02 00:47:11;;;;;;;35.58;21.05;;;;;;;4.24;100.00;102108.06;4700573;30;20045;-91
2020/12/02 00:49:40;;;;;;;34.65;21.20;;;;;;;4.11;100.00;102111.63;4726251;30;20088;-92
2020/12/02 00:52:08;;;;;;;36.78;21.52;;;;;;;4.17;100.00;102113.38;4717589;30;20143;-92
2020/12/02 00:54:35;;;;;;;38.40;21.38;;;;;;;4.14;100.00;102111.63;4717973;30;20056;-94
2020/12/02 00:57:03;;;;;;;38.67;22.30;;;;;;;4.10;100.00;102117.81;4725079;30;20178;-93
2020/12/02 00:59:32;;;;;;;36.63;22.15;;;;;;;4.12;100.00;102113.41;4707434;30;20140;-94
2020/12/02 01:02:08;;;;;;;38.17;23.58;;;;;;;4.00;100.00;102124.03;4729638;30;20130;-92
2020/12/02 01:04:38;;;;;;;36.25;22.58;;;;;;;3.98;100.00;102116.09;4715387;30;20118;-93
2020/12/02 01:07:06;;;;;;;41.53;23.05;;;;;;;4.01;100.00;102117.84;4725908;30;20263;-91
2020/12/02 01:09:33;;;;;;;37.50;22.02;;;;;;;4.03;100.00;102118.72;4723581;30;20419;-93
2020/12/02 01:12:02;;;;;;;35.10;21.67;;;;;;;4.10;100.00;102125.78;4727462;30;20059;-93
2020/12/02 01:14:30;;;;;;;35.60;22.15;;;;;;;4.26;100.00;102126.63;4712655;30;20066;-93
2020/12/02 01:17:00;;;;;;;35.05;22.27;;;;;;;4.15;100.00;102120.44;4718876;30;20098;-93
2020/12/02 01:19:31;;;;;;;40.00;23.95;;;;;;;4.25;100.00;102125.72;4725277;30;20056;-91
2020/12/02 01:22:01;;;;;;;36.53;23.38;;;;;;;4.31;100.00;102115.13;4729898;30;20036;-90
2020/12/02 01:24:36;;;;;;;38.85;23.02;;;;;;;4.26;100.00;102118.69;4731075;30;20071;-91
2020/12/02 01:27:12;;;;;;;38.33;22.98;;;;;;;4.19;100.00;102114.28;4722407;30;20693;-91
2020/12/02 01:29:40;;;;;;;36.40;22.70;;;;;;;4.06;100.00;102116.06;4717633;30;20064;-91
2020/12/02 01:32:07;;;;;;;40.38;23.73;;;;;;;4.06;100.00;102119.59;4714940;30;20408;-92
2020/12/02 01:34:35;;;;;;;42.95;24.20;;;;;;;4.12;100.00;102118.72;4731141;30;20044;-93
2020/12/02 01:37:25;;;;;;;39.90;23.40;;;;;;;4.15;100.00;102116.06;4726440;30;20127;-92
2020/12/02 01:40:02;;;;;;;40.47;23.67;;;;;;;4.11;100.00;102111.63;4726114;30;20389;-91
2020/12/02 01:42:30;;;;;;;38.60;23.55;;;;;;;4.09;100.00;102109.00;4725648;30;20060;-91
2020/12/02 01:44:58;;;;;;;39.03;24.15;;;;;;;4.17;100.00;102101.00;4715736;30;20456;-91
2020/12/02 01:47:37;;;;;;;39.25;22.58;;;;;;;4.16;100.00;102099.25;4733045;30;20091;-92
2020/12/02 01:50:11;;;;;;;37.80;22.77;;;;;;;4.24;100.00;102088.63;4729007;30;20090;-91
2020/12/02 01:52:51;;;;;;;40.28;23.20;;;;;;;4.30;100.00;102101.88;4725495;30;20065;-91
2020/12/02 01:55:27;;;;;;;37.93;22.57;;;;;;;4.21;100.00;102100.13;4707571;30;20124;-91
2020/12/02 01:58:02;;;;;;;35.88;22.17;;;;;;;4.16;100.00;102099.25;4701085;30;20056;-91
2020/12/02 02:00:34;;;;;;;37.30;23.13;;;;;;;4.22;100.00;102093.03;4732356;30;20571;-92
2020/12/02 02:03:09;;;;;;;37.78;22.73;;;;;;;4.24;100.00;102094.81;4733567;30;20389;-90
2020/12/02 02:05:46;;;;;;;39.10;22.48;;;;;;;4.22;100.00;102095.69;4729497;30;20102;-91
2020/12/02 02:08:15;;;;;;;38.35;22.55;;;;;;;4.28;100.00;102091.25;4725066;30;20144;-93
2020/12/02 02:10:47;;;;;;;38.35;23.08;;;;;;;4.27;100.00;102092.16;4725013;30;20114;-92
2020/12/02 02:14:01;;;;;;;37.50;22.30;;;;;;;4.00;100.00;102092.22;4717599;30;20142;-92
2020/12/02 02:16:31;;;;;;;38.22;21.60;;;;;;;4.05;100.00;102088.69;4733265;30;20131;-92
2020/12/02 02:18:59;;;;;;;38.40;23.73;;;;;;;4.08;100.00;102088.69;4717299;30;20060;-91
2020/12/02 02:21:29;;;;;;;40.17;24.35;;;;;;;4.09;100.00;102085.13;4727190;30;20048;-91
2020/12/02 02:23:56;;;;;;;37.40;23.58;;;;;;;4.12;100.00;102097.50;4714626;30;20053;-93
2020/12/02 02:26:29;;;;;;;37.03;24.48;;;;;;;4.05;100.00;102080.72;4722214;30;20139;-92
2020/12/02 02:29:03;;;;;;;39.17;23.63;;;;;;;3.93;100.00;102079.88;4717759;30;20060;-92
2020/12/02 02:31:39;;;;;;;39.80;23.77;;;;;;;4.00;100.00;102090.47;4733315;30;20159;-92
2020/12/02 02:34:10;;;;;;;39.42;23.67;;;;;;;4.05;100.00;102091.34;4730218;30;20581;-91
2020/12/02 02:36:37;;;;;;;40.92;24.02;;;;;;;4.09;100.00;102081.59;4713120;30;20052;-92
2020/12/02 02:39:06;;;;;;;39.78;24.65;;;;;;;4.10;100.00;102083.38;4719847;30;20103;-91
2020/12/02 02:41:34;;;;;;;36.10;23.63;;;;;;;4.10;100.00;102091.31;4729542;30;20048;-91
2020/12/02 02:44:02;;;;;;;38.70;24.27;;;;;;;4.02;100.00;102095.75;4733354;30;20058;-91
2020/12/02 02:46:30;;;;;;;41.40;25.48;;;;;;;3.89;100.00;102086.06;4731763;30;20067;-91
2020/12/02 02:48:57;;;;;;;41.63;25.20;;;;;;;3.94;100.00;102085.19;4723734;30;20053;-91
2020/12/02 02:51:25;;;;;;;38.58;23.58;;;;;;;3.93;100.00;102090.47;4711181;30;20278;-90
2020/12/02 02:53:53;;;;;;;41.00;24.10;;;;;;;3.90;100.00;102088.72;4726769;30;20048;-90
2020/12/02 02:56:20;;;;;;;38.42;25.02;;;;;;;3.94;100.00;102092.25;4730959;30;20057;-89
2020/12/02 02:58:49;;;;;;;41.38;24.52;;;;;;;3.94;100.00;102087.84;4733562;30;20053;-93
2020/12/02 03:01:16;;;;;;;37.38;23.75;;;;;;;3.97;100.00;102079.00;4729247;30;20049;-92
2020/12/02 03:03:44;;;;;;;43.10;25.52;;;;;;;3.92;100.00;102086.06;4731763;30;20147;-91
2020/12/02 03:06:12;;;;;;;39.53;23.05;;;;;;;3.90;100.00;102075.47;4711739;30;20061;-92
2020/12/02 03:08:40;;;;;;;40.10;23.85;;;;;;;3.96;100.00;102079.88;4730580;30;20052;-92
2020/12/02 03:11:12;;;;;;;42.78;24.13;;;;;;;4.08;100.00;102075.44;4717988;30;20051;-92
2020/12/02 03:13:43;;;;;;;37.00;23.65;;;;;;;4.08;100.00;102069.25;4731895;30;20132;-91
2020/12/02 03:16:17;;;;;;;44.40;25.33;;;;;;;4.02;100.00;102067.47;4732466;30;20468;-92
2020/12/02 03:18:47;;;;;;;37.75;23.50;;;;;;;4.06;100.00;102063.06;4724566;30;20049;-92
2020/12/02 03:21:19;;;;;;;37.33;23.55;;;;;;;3.97;100.00;102058.69;4727556;30;20063;-93
2020/12/02 03:23:48;;;;;;;39.53;23.95;;;;;;;3.97;100.00;102055.16;4732941;30;20188;-91
2020/12/02 03:26:15;;;;;;;36.50;22.40;;;;;;;3.91;100.00;102045.44;4703088;30;20708;-91
2020/12/02 03:28:43;;;;;;;37.47;23.33;;;;;;;3.89;100.00;102059.56;4716789;30;20135;-90
2020/12/02 03:31:13;;;;;;;39.40;23.33;;;;;;;3.81;100.00;102054.28;4715355;30;20052;-91
2020/12/02 03:33:41;;;;;;;41.20;23.27;;;;;;;3.89;100.00;102047.19;4712521;30;20133;-92
2020/12/02 03:36:12;;;;;;;38.83;23.27;;;;;;;3.79;100.00;102061.38;4717552;30;20033;-92
2020/12/02 03:38:39;;;;;;;;;;;;;;;3.81;100.00;102049.88;4732176;30;20049;-91
2020/12/02 03:41:07;;;;;;;38.33;21.98;;;;;;;3.88;100.00;102050.75;4730510;30;19934;-92
2020/12/02 03:43:34;;;;;;;37.45;21.40;;;;;;;3.80;100.00;102047.22;4729249;30;20057;-91
2020/12/02 03:46:02;;;;;;;34.25;20.48;;;;;;;3.78;100.00;102051.63;4729050;30;20512;-89
2020/12/02 03:48:30;;;;;;;34.55;20.25;;;;;;;3.83;100.00;102052.53;4736647;30;20053;-92
2020/12/02 03:50:59;;;;;;;36.50;21.08;;;;;;;3.78;100.00;102049.00;4745034;30;20069;-92
2020/12/02 03:53:26;;;;;;;32.28;19.00;;;;;;;3.75;100.00;102043.69;4737116;30;20122;-92
2020/12/02 03:55:54;;;;;;;37.05;19.73;;;;;;;3.77;100.00;102048.13;4740268;30;20067;-90
2020/12/02 03:58:21;;;;;;;32.25;18.42;;;;;;;3.76;100.00;102043.72;4738555;30;20060;-91
2020/12/02 04:00:50;;;;;;;34.35;19.90;;;;;;;3.76;100.00;102046.34;4728369;30;20071;-91
2020/12/02 04:03:17;;;;;;;30.92;18.42;;;;;;;3.82;100.00;102048.09;4713069;30;20132;-92
2020/12/02 04:05:47;;;;;;;32.88;18.38;;;;;;;3.81;100.00;102041.91;4731609;30;20086;-92
2020/12/02 04:08:16;;;;;;;32.90;19.20;;;;;;;3.79;100.00;102046.34;4717040;30;20087;-92
2020/12/02 04:10:44;;;;;;;33.55;19.58;;;;;;;3.82;100.00;102048.09;4731606;30;20052;-92
2020/12/02 04:13:11;;;;;;;37.33;20.42;;;;;;;3.74;100.00;102044.59;4730048;30;20067;-91
2020/12/02 04:15:38;;;;;;;32.03;19.27;;;;;;;3.81;100.00;102049.00;4742880;30;20444;-91
2020/12/02 04:18:06;;;;;;;34.38;20.42;;;;;;;3.84;100.00;102038.38;4744495;30;20060;-91
2020/12/02 04:20:33;;;;;;;35.78;21.13;;;;;;;3.79;100.00;102046.34;4743761;30;20052;-90
2020/12/02 04:23:03;;;;;;;36.33;20.75;;;;;;;3.84;100.00;102039.25;4727450;30;20049;-91
2020/12/02 04:25:30;;;;;;;37.65;22.25;;;;;;;3.70;100.00;102035.75;4715884;30;20334;-90
2020/12/02 04:27:57;;;;;;;38.30;20.45;;;;;;;3.66;100.00;102038.44;4720511;30;20431;-91
2020/12/02 04:30:25;;;;;;;37.95;21.50;;;;;;;3.71;100.00;102037.53;4710712;30;20071;-91
2020/12/02 04:32:52;;;;;;;37.10;20.48;;;;;;;3.62;100.00;102034.91;4733202;30;20527;-90
2020/12/02 04:35:20;;;;;;;35.88;21.38;;;;;;;3.54;100.00;102032.28;4731065;30;20065;-91
2020/12/02 04:37:47;;;;;;;36.22;21.50;;;;;;;3.50;100.00;102024.31;4729819;30;20431;-89
2020/12/02 04:40:21;;;;;;;37.85;22.33;;;;;;;3.46;100.00;102019.91;4732118;30;20154;-91
2020/12/02 04:42:55;;;;;;;39.30;22.52;;;;;;;3.38;100.00;102028.75;4720684;30;20102;-89
2020/12/02 04:45:22;;;;;;;42.33;22.92;;;;;;;3.29;100.00;102027.88;4729883;30;20091;-91
2020/12/02 04:47:50;;;;;;;39.53;22.75;;;;;;;3.22;100.00;102027.00;4700311;30;20045;-90
2020/12/02 04:50:22;;;;;;;37.03;21.77;;;;;;;3.19;100.00;102027.00;4728994;30;20044;-90
2020/12/02 04:53:01;;;;;;;36.03;21.83;;;;;;;3.16;100.00;102036.69;4712936;30;20396;-90
2020/12/02 04:55:30;;;;;;;35.42;21.40;;;;;;;3.05;100.00;102042.88;4684777;30;20075;-90
2020/12/02 04:57:57;;;;;;;41.05;23.48;;;;;;;3.01;100.00;102034.94;4714834;30;21574;-89
2020/12/02 05:00:28;;;;;;;41.10;22.67;;;;;;;2.98;100.00;102032.28;4729026;30;20442;-89
2020/12/02 05:03:05;;;;;;;37.05;22.15;;;;;;;2.95;100.00;102040.22;4728899;30;20061;-89
2020/12/02 05:05:33;;;;;;;40.42;24.05;;;;;;;2.90;100.00;102034.91;4715487;30;20049;-89
2020/12/02 05:08:16;;;;;;;42.72;23.60;;;;;;;2.75;100.00;102041.06;4731719;30;20124;-88
2020/12/02 05:10:45;;;;;;;40.15;22.38;;;;;;;2.59;100.00;102041.91;4705918;30;20049;-90
2020/12/02 05:13:12;;;;;;;42.75;23.33;;;;;;;2.52;100.00;102043.63;4724645;30;20056;-91
2020/12/02 05:15:39;;;;;;;40.92;23.10;;;;;;;2.49;100.00;102045.41;4726404;30;20048;-89
2020/12/02 05:18:21;;;;;;;44.38;25.85;;;;;;;2.46;100.00;102048.06;4713404;30;20051;-90
2020/12/02 05:21:05;;;;;;;43.80;24.67;;;;;;;2.18;100.00;102045.28;4711096;30;20049;-90
2020/12/02 05:23:32;;;;;;;45.35;24.48;;;;;;;2.25;100.00;102039.16;4709751;30;20147;-89
2020/12/02 05:26:04;;;;;;;44.13;25.25;;;;;;;2.22;100.00;102041.78;4709073;30;20056;-89
2020/12/02 05:28:39;;;;;;;47.83;26.52;;;;;;;2.15;100.00;102047.91;4729070;30;20469;-89
2020/12/02 05:31:13;;;;;;;44.42;24.83;;;;;;;2.12;100.00;102047.91;4726843;30;20166;-89
2020/12/02 05:33:41;;;;;;;45.13;24.77;;;;;;;2.08;100.00;102049.66;4714915;30;20056;-90
2020/12/02 05:36:13;;;;;;;46.37;26.93;;;;;;;2.12;100.00;102046.13;4730631;30;20052;-88
2020/12/02 05:38:47;;;;;;;48.13;26.48;;;;;;;2.21;100.00;102044.44;4727421;30;20149;-88
2020/12/02 05:41:18;;;;;;;46.38;27.45;;;;;;;2.31;100.00;102047.13;4728961;30;20044;-89
2020/12/02 05:43:48;;;;;;;;;;;;;;;2.29;100.00;102045.34;4732828;30;20049;-88
2020/12/02 05:46:22;;;;;;;48.30;26.30;;;;;;;2.36;100.00;102047.13;4728418;30;19957;-90
2020/12/02 05:48:59;;;;;;;46.13;27.02;;;;;;;2.36;100.00;102044.50;4731234;30;20128;-90
2020/12/02 05:51:26;;;;;;;52.13;28.05;;;;;;;2.40;100.00;102039.22;4725667;30;20060;-86
2020/12/02 05:53:58;;;;;;;52.92;28.27;;;;;;;2.38;100.00;102040.97;4725187;30;20090;-85
2020/12/02 05:56:27;;;;;;;50.92;28.20;;;;;;;2.39;100.00;102034.81;4723938;30;20139;-82
2020/12/02 05:58:55;;;;;;;50.22;28.63;;;;;;;2.52;100.00;102040.13;4723906;30;20068;-83
2020/12/02 06:01:22;;;;;;;52.15;29.00;;;;;;;2.50;100.00;102041.91;4722983;30;20056;-87
2020/12/02 06:03:53;;;;;;;51.85;28.52;;;;;;;2.48;100.00;102030.41;4723362;30;20052;-88
2020/12/02 06:06:21;;;;;;;54.63;29.50;;;;;;;2.62;100.00;102032.22;4714089;30;20415;-87
2020/12/02 06:08:51;;;;;;;49.40;27.08;;;;;;;2.60;100.00;102030.47;4710297;30;20067;-92
2020/12/02 06:11:25;;;;;;;50.73;28.23;;;;;;;2.72;100.00;102029.59;4716047;30;20148;-88
2020/12/02 06:13:55;;;;;;;48.75;28.20;;;;;;;2.62;100.00;102026.94;4715074;30;20503;-86
2020/12/02 06:16:34;;;;;;;53.05;28.75;;;;;;;2.73;100.00;102021.66;4718345;30;20057;-88
2020/12/02 06:19:10;;;;;;;52.35;28.75;;;;;;;2.71;100.00;102019.91;4715148;30;20114;-88
2020/12/02 06:21:39;;;;;;;55.65;29.88;;;;;;;2.78;100.00;102016.41;4714477;30;20048;-87
2020/12/02 06:24:08;;;;;;;45.85;26.13;;;;;;;2.78;100.00;102014.63;4721003;30;20060;-88
2020/12/02 06:26:37;;;;;;;47.25;27.05;;;;;;;2.84;100.00;102008.44;4709251;30;20041;-88
2020/12/02 06:29:15;;;;;;;48.22;26.58;;;;;;;2.83;100.00;102012.88;4714191;30;20102;-88
2020/12/02 06:31:56;;;;;;;49.63;27.13;;;;;;;2.93;100.00;101997.00;4718600;30;20055;-87
2020/12/02 06:34:25;;;;;;;48.40;25.55;;;;;;;2.88;100.00;102000.53;4712502;30;20040;-88
2020/12/02 06:37:13;;;;;;;42.90;25.02;;;;;;;3.06;100.00;102004.06;4711025;30;20676;-90
2020/12/02 06:39:43;;;;;;;41.92;23.70;;;;;;;3.07;100.00;101995.25;4698699;30;20052;-90
2020/12/02 06:42:25;;;;;;;45.53;25.13;;;;;;;3.08;100.00;101997.00;4698986;30;20053;-88
2020/12/02 06:45:09;;;;;;;41.88;23.58;;;;;;;3.23;100.00;101991.69;4712504;30;20064;-89
2020/12/02 06:47:55;;;;;;;43.80;24.73;;;;;;;3.29;100.00;101997.00;4714164;30;20080;-93
2020/12/02 06:50:25;;;;;;;39.42;23.23;;;;;;;3.27;100.00;101992.59;4707192;30;20049;-93
2020/12/02 06:52:56;;;;;;;41.92;25.40;;;;;;;3.18;100.00;101988.19;4721308;30;20052;-93
2020/12/02 06:55:26;;;;;;;50.05;26.25;;;;;;;3.15;100.00;101985.53;4721272;30;20055;-94
2020/12/02 06:57:56;;;;;;;45.45;24.88;;;;;;;3.12;100.00;101981.13;4718906;30;20057;-95
2020/12/02 07:00:27;;;;;;;47.90;25.58;;;;;;;3.16;100.00;101973.19;4711404;30;20512;-90
2020/12/02 07:03:02;;;;;;;45.65;25.88;;;;;;;3.07;100.00;101976.72;4708702;30;20475;-94
2020/12/02 07:05:36;;;;;;;46.28;24.98;;;;;;;3.08;100.00;101976.72;4700652;30;20072;-93
2020/12/02 07:08:10;;;;;;;44.88;23.95;;;;;;;3.14;100.00;101978.50;4721281;30;20053;-90
2020/12/02 07:10:40;;;;;;;44.15;24.15;;;;;;;3.10;100.00;101974.97;4720351;30;20534;-92
2020/12/02 07:13:14;;;;;;;39.17;24.95;;;;;;;3.07;100.00;101985.53;4700408;30;20053;-94
2020/12/02 07:15:44;;;;;;;42.08;24.20;;;;;;;3.07;100.00;101979.38;4715994;30;21052;-93
2020/12/02 07:18:14;;;;;;;43.08;25.23;;;;;;;2.96;100.00;101976.72;4717720;30;20276;-90
2020/12/02 07:20:45;;;;;;;46.22;24.75;;;;;;;2.98;100.00;101974.06;4717887;30;20061;-93
2020/12/02 07:23:15;;;;;;;44.92;25.73;;;;;;;2.98;100.00;101976.72;4728273;30;20135;-93
2020/12/02 07:25:43;;;;;;;44.65;23.88;;;;;;;2.99;100.00;101975.81;4733321;30;20044;-93
2020/12/02 07:28:18;;;;;;;45.60;25.83;;;;;;;2.91;100.00;101975.84;4717738;30;20452;-92
2020/12/02 07:30:48;;;;;;;45.10;23.73;;;;;;;2.96;100.00;101975.81;4708435;30;20064;-91
2020/12/02 07:33:19;;;;;;;45.85;25.73;;;;;;;2.95;100.00;101976.72;4714647;30;20049;-92
2020/12/02 07:35:48;;;;;;;44.20;24.05;;;;;;;2.91;100.00;101972.31;4718797;30;20259;-91
2020/12/02 07:38:17;;;;;;;32.95;18.98;;;;;;;2.79;100.00;101967.91;4704740;30;20571;-90
2020/12/02 07:40:44;;;;;;;43.88;24.95;;;;;;;2.87;100.00;101969.66;4728835;30;20053;-87
2020/12/02 07:43:26;;;;;;;44.63;24.30;;;;;;;2.82;100.00;101958.22;4727519;30;20047;-93
2020/12/02 07:45:57;;;;;;;44.35;24.95;;;;;;;2.79;100.00;101963.50;4717651;30;20167;-91
2020/12/02 07:48:26;;;;;;;41.63;23.52;;;;;;;2.83;100.00;101949.38;4718834;30;20085;-92
2020/12/02 07:50:58;;;;;;;42.83;23.92;;;;;;;2.79;100.00;101954.69;4718616;30;20048;-93
2020/12/02 07:53:36;;;;;;;44.93;24.20;;;;;;;2.75;100.00;101945.00;4720562;30;20567;-89
2020/12/02 07:56:07;;;;;;;51.13;26.20;;;;;;;2.81;100.00;101951.16;4719336;30;20052;-92
2020/12/02 07:58:39;;;;;;;45.63;26.35;;;;;;;2.83;100.00;101948.50;4716845;30;20067;-92
2020/12/02 08:01:24;;;;;;;49.38;25.50;;;;;;;2.96;100.00;101941.44;4700647;30;20059;-93
2020/12/02 08:03:52;;;;;;;48.22;24.85;;;;;;;2.93;100.00;101944.09;4720261;30;20049;-90
2020/12/02 08:06:30;;;;;;;44.50;25.23;;;;;;;2.93;100.00;101946.75;4722568;30;20492;-91
2020/12/02 08:08:57;;;;;;;45.83;25.77;;;;;;;2.97;100.00;101943.22;4708289;30;20092;-92
2020/12/02 08:11:25;;;;;;;45.75;26.20;;;;;;;2.96;100.00;101945.00;4721093;30;20072;-90
2020/12/02 08:13:55;;;;;;;43.90;26.05;;;;;;;3.00;100.00;101948.50;4718110;30;20067;-91
2020/12/02 08:16:26;;;;;;;46.40;25.50;;;;;;;3.03;100.00;101940.53;4717556;30;20321;-89
2020/12/02 08:19:11;;;;;;;43.47;26.10;;;;;;;2.94;100.00;101936.16;4701422;30;20052;-91
2020/12/02 08:21:48;;;;;;;46.10;24.70;;;;;;;2.96;100.00;101941.44;4718058;30;20680;-92
2020/12/02 08:24:22;;;;;;;46.97;24.75;;;;;;;2.99;100.00;101934.38;4717752;30;20118;-94
2020/12/02 08:27:07;;;;;;;45.65;23.73;;;;;;;2.98;100.00;101921.16;4714639;30;20045;-93
2020/12/02 08:29:35;;;;;;;45.25;24.05;;;;;;;3.03;100.00;101922.03;4712111;30;20492;-92
2020/12/02 08:32:08;;;;;;;44.42;24.95;;;;;;;2.98;100.00;101915.88;4722215;30;20083;-95
2020/12/02 08:34:37;;;;;;;56.13;26.05;;;;;;;2.85;100.00;101921.19;4719956;30;21194;-94
2020/12/02 08:37:23;;;;;;;51.47;25.75;;;;;;;2.91;100.00;101919.41;4702640;30;20045;-93
2020/12/02 08:39:56;;;;;;;44.70;25.23;;;;;;;2.93;100.00;101915.00;4715675;30;20282;-91
2020/12/02 08:42:28;;;;;;;49.30;26.27;;;;;;;2.92;100.00;101911.44;4711646;30;20585;-92
2020/12/02 08:45:14;;;;;;;46.08;24.60;;;;;;;2.92;100.00;101908.81;4717179;30;20126;-90
2020/12/02 08:47:42;;;;;;;48.67;26.33;;;;;;;2.89;100.00;101916.78;4715049;30;20077;-90
2020/12/02 08:50:22;;;;;;;45.83;25.13;;;;;;;2.88;100.00;101910.59;4714400;30;20060;-91
2020/12/02 08:52:54;;;;;;;43.88;25.52;;;;;;;2.64;100.00;101910.59;4716207;30;20906;-92
2020/12/02 08:55:22;;;;;;;48.78;24.88;;;;;;;2.74;100.00;101912.38;4707125;30;20511;-91
2020/12/02 08:57:52;;;;;;;43.80;25.45;;;;;;;2.64;100.00;101900.03;4701240;30;20049;-92
2020/12/02 09:00:23;;;;;;;46.70;26.58;;;;;;;2.73;100.00;101910.59;4705242;30;20143;-91
2020/12/02 09:02:50;;;;;;;50.78;27.00;;;;;;;2.70;100.00;101905.28;4718390;30;20443;-91
2020/12/02 09:05:18;;;;;;;47.10;26.48;;;;;;;2.74;100.00;101907.09;4716593;30;20083;-91
2020/12/02 09:07:46;;;;;;;44.63;24.02;;;;;;;2.85;100.00;101894.72;4716998;30;20687;-91
2020/12/02 09:10:13;;;;;;;44.45;24.50;;;;;;;2.68;100.00;101891.22;4715955;30;20115;-91
2020/12/02 09:12:40;;;;;;;43.45;24.85;;;;;;;2.62;100.00;101899.13;4725866;30;20080;-91
2020/12/02 09:15:08;;;;;;;45.63;24.88;;;;;;;2.61;100.00;101892.09;4729640;30;20106;-91
2020/12/02 09:17:35;;;;;;;54.17;26.42;;;;;;;2.63;100.00;101887.66;4710400;30;20055;-92
2020/12/02 09:20:03;;;;;;;42.17;24.23;;;;;;;2.62;100.00;101885.91;4722553;30;20055;-92
2020/12/02 09:22:30;;;;;;;45.55;26.00;;;;;;;2.69;100.00;101885.03;4717200;30;20045;-92
2020/12/02 09:24:57;;;;;;;44.22;25.52;;;;;;;2.84;100.00;101886.78;4718181;30;20045;-92
2020/12/02 09:27:24;;;;;;;47.65;26.98;;;;;;;2.83;100.00;101870.03;4705364;30;20186;-91
2020/12/02 09:29:53;;;;;;;45.33;25.55;;;;;;;2.88;100.00;101878.88;4719438;30;20086;-90
2020/12/02 09:32:21;;;;;;;49.15;26.27;;;;;;;2.88;100.00;101870.00;4719206;30;20507;-89
2020/12/02 09:34:49;;;;;;;42.90;24.60;;;;;;;2.94;100.00;101872.66;4716980;30;20543;-90
2020/12/02 09:37:16;;;;;;;47.63;26.45;;;;;;;3.05;100.00;101875.28;4700262;30;20041;-89
2020/12/02 09:39:44;;;;;;;48.03;26.58;;;;;;;3.05;100.00;101872.63;4713349;30;20091;-92
2020/12/02 09:42:29;;;;;;;48.30;26.65;;;;;;;3.06;100.00;101871.75;4704136;30;20056;-91
2020/12/02 09:45:03;;;;;;;41.17;24.20;;;;;;;3.11;100.00;101864.69;4705080;30;20073;-90
2020/12/02 09:47:31;;;;;;;44.17;25.83;;;;;;;3.03;100.00;101855.88;4720486;30;20103;-90
2020/12/02 09:49:58;;;;;;;48.33;27.33;;;;;;;3.10;100.00;101855.88;4689090;30;20057;-90
2020/12/02 09:52:45;;;;;;;59.60;28.48;;;;;;;3.15;100.00;101855.88;4712479;30;20064;-92
2020/12/02 09:55:17;;;;;;;46.97;26.42;;;;;;;3.13;100.00;101852.31;4702360;30;20052;-90
2020/12/02 09:57:45;;;;;;;47.40;26.70;;;;;;;3.04;100.00;101841.78;4700903;30;20056;-90
2020/12/02 10:00:13;;;;;;;47.88;27.10;;;;;;;3.23;100.00;101848.78;4711627;30;20044;-88
2020/12/02 10:03:15;;;;;;;46.70;25.45;;;;;;;3.15;100.00;101834.69;4712271;30;20044;-91
2020/12/02 10:06:14;;;;;;;51.63;27.42;;;;;;;3.13;100.00;101832.03;4709719;30;21181;-91
2020/12/02 10:09:01;;;;;;;53.00;26.77;;;;;;;3.12;100.00;101824.13;4697376;30;20056;-88
2020/12/02 10:11:47;;;;;;;46.60;27.40;;;;;;;3.18;100.00;101818.81;4714335;30;20045;-89
2020/12/02 10:14:32;;;;;;;57.67;27.02;;;;;;;3.18;100.00;101810.00;4705554;30;20049;-89
2020/12/02 10:17:09;;;;;;;46.25;26.50;;;;;;;3.21;100.00;101810.88;4730605;30;20581;-90
2020/12/02 10:19:55;;;;;;;52.80;27.50;;;;;;;3.24;100.00;101808.19;4715306;30;20044;-90
2020/12/02 10:22:44;;;;;;;48.35;27.63;;;;;;;3.22;100.00;101799.38;4717590;30;20055;-89
2020/12/02 10:25:23;;;;;;;48.95;26.55;;;;;;;3.26;100.00;101795.84;4705185;30;20061;-90
2020/12/02 10:28:02;;;;;;;51.53;27.90;;;;;;;3.33;100.00;101794.91;4717977;30;20070;-89
2020/12/02 10:30:31;;;;;;;64.20;29.27;;;;;;;3.27;100.00;101792.28;4716045;30;20090;-90
2020/12/02 10:33:16;;;;;;;55.08;28.35;;;;;;;3.18;100.00;101779.13;4715895;30;21137;-89
2020/12/02 10:35:47;;;;;;;52.53;28.35;;;;;;;3.22;100.00;101780.84;4698136;30;20143;-91
2020/12/02 10:38:23;;;;;;;;;;;;;;;3.28;100.00;101775.53;4717103;30;20055;-90
2020/12/02 10:40:59;;;;;;;45.53;25.77;;;;;;;3.32;100.00;101764.06;4713874;30;19931;-91
2020/12/02 10:43:38;;;;;;;53.80;28.45;;;;;;;3.35;100.00;101763.13;4716657;30;20055;-90
2020/12/02 10:46:13;;;;;;;55.42;28.85;;;;;;;3.37;100.00;101766.66;4715677;30;20134;-90
2020/12/02 10:48:49;;;;;;;52.63;28.48;;;;;;;3.46;100.00;101760.44;4711981;30;20651;-89
2020/12/02 10:51:17;;;;;;;59.72;29.38;;;;;;;3.46;100.00;101755.13;4705089;30;20501;-91
2020/12/02 10:53:49;;;;;;;64.50;30.38;;;;;;;3.41;100.00;101747.22;4718260;30;20052;-91
2020/12/02 10:56:20;;;;;;;53.17;29.65;;;;;;;3.43;100.00;101749.88;4710722;30;20057;-91
2020/12/02 10:58:52;;;;;;;;;;;;;;;3.49;100.00;101749.81;4700703;30;20056;-90
2020/12/02 11:01:22;;;;;;;55.08;28.30;;;;;;;3.56;100.00;101727.72;4710030;30;19927;-92
2020/12/02 11:03:50;;;;;;;51.90;28.70;;;;;;;3.60;100.00;101724.16;4713456;30;20041;-90
2020/12/02 11:06:39;;;;;;;60.95;31.50;;;;;;;3.64;100.00;101720.59;4711916;30;20381;-90
2020/12/02 11:09:22;;;;;;;52.17;29.25;;;;;;;3.71;100.00;101709.06;4704456;30;20135;-90
2020/12/02 11:12:33;;;;;;;52.72;28.80;;;;;;;3.75;100.00;101700.22;4714476;30;20088;-91
2020/12/02 11:15:12;;;;;;;59.10;31.10;;;;;;;3.72;100.00;101702.91;4713780;30;20041;-89
2020/12/02 11:17:59;;;;;;;54.50;29.70;;;;;;;3.69;100.00;101689.69;4711373;30;20044;-91
2020/12/02 11:20:33;;;;;;;51.53;28.85;;;;;;;3.83;100.00;101693.09;4713779;30;20148;-90
2020/12/02 11:23:07;;;;;;;53.63;29.17;;;;;;;3.76;100.00;101690.50;4717368;30;20048;-87
2020/12/02 11:25:42;;;;;;;57.75;29.83;;;;;;;3.78;100.00;101676.34;4680164;30;20054;-89
2020/12/02 11:28:09;;;;;;;48.42;27.88;;;;;;;3.79;100.00;101670.19;4678186;30;20413;-90
2020/12/02 11:30:40;;;;;;;53.00;27.73;;;;;;;3.77;100.00;101666.66;4687149;30;20058;-91
2020/12/02 11:33:34;;;;;;;49.55;29.20;;;;;;;3.75;100.00;101664.88;4676086;30;20136;-92